sensor_id;sensor_type;location;lat;lon;timestamp;pressure;altitude;pressure_sealevel;temperature;humidity
8253;BME280;61313;48.396;10.008;2023-03-20T00:00:31;96398.94;;;11.33;67.24
8253;BME280;61313;48.396;10.008;2023-03-20T00:02:58;96397.22;;;11.32;67.10
8253;BME280;61313;48.396;10.008;2023-03-20T00:05:25;96401.56;;;11.33;66.53
8253;BME280;61313;48.396;10.008;2023-03-20T00:07:52;96395.25;;;11.37;66.96
8253;BME280;61313;48.396;10.008;2023-03-20T00:10:19;96406.97;;;11.30;67.30
8253;BME280;61313;48.396;10.008;2023-03-20T00:12:46;96402.50;;;11.32;67.49
8253;BME280;61313;48.396;10.008;2023-03-20T00:15:35;96397.78;;;11.38;67.19
8253;BME280;61313;48.396;10.008;2023-03-20T00:18:02;96405.38;;;11.44;66.29
8253;BME280;61313;48.396;10.008;2023-03-20T00:20:28;96396.16;;;11.36;66.48
8253;BME280;61313;48.396;10.008;2023-03-20T00:22:53;96408.66;;;11.31;65.72
8253;BME280;61313;48.396;10.008;2023-03-20T00:25:22;96396.50;;;11.28;65.52
8253;BME280;61313;48.396;10.008;2023-03-20T00:27:49;96395.81;;;11.25;65.32
8253;BME280;61313;48.396;10.008;2023-03-20T00:32:42;96401.81;;;11.27;64.78
8253;BME280;61313;48.396;10.008;2023-03-20T00:35:18;96402.69;;;11.27;65.34
8253;BME280;61313;48.396;10.008;2023-03-20T00:37:43;96395.16;;;11.19;65.53
8253;BME280;61313;48.396;10.008;2023-03-20T00:40:09;96392.69;;;11.16;65.48
8253;BME280;61313;48.396;10.008;2023-03-20T00:42:35;96398.00;;;11.15;65.56
8253;BME280;61313;48.396;10.008;2023-03-20T00:45:01;96397.09;;;11.16;65.65
8253;BME280;61313;48.396;10.008;2023-03-20T00:47:27;96395.94;;;11.21;65.74
8253;BME280;61313;48.396;10.008;2023-03-20T00:49:54;96393.72;;;11.12;65.98
8253;BME280;61313;48.396;10.008;2023-03-20T00:52:23;96396.44;;;11.11;66.62
8253;BME280;61313;48.396;10.008;2023-03-20T00:54:48;96388.00;;;11.04;67.09
8253;BME280;61313;48.396;10.008;2023-03-20T00:57:26;96389.91;;;11.00;67.09
8253;BME280;61313;48.396;10.008;2023-03-20T00:59:57;96386.53;;;10.98;66.88
8253;BME280;61313;48.396;10.008;2023-03-20T01:02:25;96383.31;;;10.92;66.92
8253;BME280;61313;48.396;10.008;2023-03-20T01:04:53;96387.00;;;10.88;66.92
8253;BME280;61313;48.396;10.008;2023-03-20T01:07:19;96385.00;;;10.93;66.65
8253;BME280;61313;48.396;10.008;2023-03-20T01:09:44;96399.47;;;10.83;66.96
8253;BME280;61313;48.396;10.008;2023-03-20T01:12:12;96386.25;;;10.84;66.99
8253;BME280;61313;48.396;10.008;2023-03-20T01:14:38;96392.41;;;10.85;66.74
8253;BME280;61313;48.396;10.008;2023-03-20T01:17:04;96388.13;;;10.82;67.15
8253;BME280;61313;48.396;10.008;2023-03-20T01:19:30;96386.16;;;10.87;67.07
8253;BME280;61313;48.396;10.008;2023-03-20T01:21:55;96396.06;;;10.80;66.52
8253;BME280;61313;48.396;10.008;2023-03-20T01:24:21;96388.81;;;10.67;67.26
8253;BME280;61313;48.396;10.008;2023-03-20T01:26:46;96393.78;;;10.73;67.06
8253;BME280;61313;48.396;10.008;2023-03-20T01:29:23;96395.63;;;10.71;66.64
8253;BME280;61313;48.396;10.008;2023-03-20T01:31:50;96405.69;;;10.61;67.18
8253;BME280;61313;48.396;10.008;2023-03-20T01:34:15;96399.66;;;10.59;67.38
8253;BME280;61313;48.396;10.008;2023-03-20T01:36:47;96396.50;;;10.51;66.89
8253;BME280;61313;48.396;10.008;2023-03-20T01:39:13;96403.19;;;10.58;66.49
8253;BME280;61313;48.396;10.008;2023-03-20T01:41:40;96403.50;;;10.50;66.95
8253;BME280;61313;48.396;10.008;2023-03-20T01:44:21;96400.56;;;10.58;66.11
8253;BME280;61313;48.396;10.008;2023-03-20T01:46:49;96393.81;;;10.52;65.82
8253;BME280;61313;48.396;10.008;2023-03-20T01:51:45;96394.81;;;10.29;66.82
8253;BME280;61313;48.396;10.008;2023-03-20T01:54:34;96392.97;;;10.31;66.85
8253;BME280;61313;48.396;10.008;2023-03-20T01:57:24;96392.97;;;10.31;67.15
8253;BME280;61313;48.396;10.008;2023-03-20T01:59:51;96391.34;;;10.27;67.09
8253;BME280;61313;48.396;10.008;2023-03-20T02:02:20;96394.06;;;10.26;66.70
8253;BME280;61313;48.396;10.008;2023-03-20T02:04:50;96391.44;;;10.26;66.97
8253;BME280;61313;48.396;10.008;2023-03-20T02:07:18;96392.06;;;10.32;66.82
8253;BME280;61313;48.396;10.008;2023-03-20T02:09:46;96395.84;;;10.46;66.54
8253;BME280;61313;48.396;10.008;2023-03-20T02:12:13;96399.94;;;10.32;66.77
8253;BME280;61313;48.396;10.008;2023-03-20T02:14:39;96394.91;;;10.26;66.56
8253;BME280;61313;48.396;10.008;2023-03-20T02:17:05;96398.00;;;10.36;66.30
8253;BME280;61313;48.396;10.008;2023-03-20T02:33:31;96407.66;;;10.35;65.95
8253;BME280;61313;48.396;10.008;2023-03-20T02:39:01;96414.59;;;10.16;66.86
8253;BME280;61313;48.396;10.008;2023-03-20T02:44:15;96418.47;;;10.06;66.87
8253;BME280;61313;48.396;10.008;2023-03-20T02:47:02;96409.34;;;10.16;66.47
8253;BME280;61313;48.396;10.008;2023-03-20T02:55:14;96428.97;;;10.06;66.81
8253;BME280;61313;48.396;10.008;2023-03-20T03:03:21;96431.22;;;9.94;66.67
8253;BME280;61313;48.396;10.008;2023-03-20T03:06:06;96433.75;;;9.96;67.18
8253;BME280;61313;48.396;10.008;2023-03-20T03:08:38;96438.38;;;9.89;66.81
8253;BME280;61313;48.396;10.008;2023-03-20T03:11:06;96433.69;;;9.98;66.49
8253;BME280;61313;48.396;10.008;2023-03-20T03:13:35;96444.78;;;9.82;67.12
8253;BME280;61313;48.396;10.008;2023-03-20T03:16:07;96443.94;;;9.82;67.46
8253;BME280;61313;48.396;10.008;2023-03-20T03:18:34;96442.06;;;9.85;67.13
8253;BME280;61313;48.396;10.008;2023-03-20T03:21:02;96445.44;;;9.87;66.89
8253;BME280;61313;48.396;10.008;2023-03-20T03:23:48;96445.53;;;9.86;66.89
8253;BME280;61313;48.396;10.008;2023-03-20T03:26:23;96442.16;;;9.82;67.01
8253;BME280;61313;48.396;10.008;2023-03-20T03:28:56;96447.34;;;9.84;66.89
8253;BME280;61313;48.396;10.008;2023-03-20T03:31:23;96450.09;;;9.81;67.42
8253;BME280;61313;48.396;10.008;2023-03-20T03:33:52;96447.03;;;9.91;66.78
8253;BME280;61313;48.396;10.008;2023-03-20T03:37:11;96447.31;;;9.85;66.76
8253;BME280;61313;48.396;10.008;2023-03-20T03:39:49;96450.94;;;9.81;67.45
8253;BME280;61313;48.396;10.008;2023-03-20T03:45:12;96458.25;;;9.95;66.17
8253;BME280;61313;48.396;10.008;2023-03-20T03:53:02;96470.63;;;9.91;66.55
8253;BME280;61313;48.396;10.008;2023-03-20T03:55:35;96463.56;;;9.93;66.98
8253;BME280;61313;48.396;10.008;2023-03-20T03:58:10;96465.56;;;9.87;66.97
8253;BME280;61313;48.396;10.008;2023-03-20T04:00:40;96463.13;;;9.82;67.51
8253;BME280;61313;48.396;10.008;2023-03-20T04:03:07;96461.63;;;9.77;67.79
8253;BME280;61313;48.396;10.008;2023-03-20T04:05:36;96467.16;;;9.69;68.17
8253;BME280;61313;48.396;10.008;2023-03-20T04:08:05;96469.97;;;9.64;68.28
8253;BME280;61313;48.396;10.008;2023-03-20T04:10:31;96457.72;;;9.65;67.58
8253;BME280;61313;48.396;10.008;2023-03-20T04:12:57;96467.09;;;9.70;67.75
8253;BME280;61313;48.396;10.008;2023-03-20T04:15:22;96475.13;;;9.66;68.17
8253;BME280;61313;48.396;10.008;2023-03-20T04:17:48;96474.09;;;9.70;67.77
8253;BME280;61313;48.396;10.008;2023-03-20T04:20:14;96472.28;;;9.72;67.80
8253;BME280;61313;48.396;10.008;2023-03-20T04:22:40;96473.06;;;9.74;67.57
8253;BME280;61313;48.396;10.008;2023-03-20T04:25:07;96476.78;;;9.68;67.94
8253;BME280;61313;48.396;10.008;2023-03-20T04:27:33;96480.84;;;9.75;67.44
8253;BME280;61313;48.396;10.008;2023-03-20T04:29:59;96484.47;;;9.73;67.59
8253;BME280;61313;48.396;10.008;2023-03-20T04:32:25;96487.69;;;9.80;67.67
8253;BME280;61313;48.396;10.008;2023-03-20T04:34:50;96494.22;;;9.91;66.78
8253;BME280;61313;48.396;10.008;2023-03-20T04:37:16;96492.75;;;9.84;67.26
8253;BME280;61313;48.396;10.008;2023-03-20T04:39:42;96486.72;;;9.82;67.31
8253;BME280;61313;48.396;10.008;2023-03-20T04:42:08;96490.94;;;9.86;67.52
8253;BME280;61313;48.396;10.008;2023-03-20T04:44:33;96495.69;;;9.77;67.15
8253;BME280;61313;48.396;10.008;2023-03-20T04:46:59;96490.41;;;9.78;67.87
8253;BME280;61313;48.396;10.008;2023-03-20T04:49:25;96495.50;;;9.81;67.42
8253;BME280;61313;48.396;10.008;2023-03-20T04:51:51;96489.28;;;9.84;67.67
8253;BME280;61313;48.396;10.008;2023-03-20T04:54:17;96484.53;;;9.93;67.45
8253;BME280;61313;48.396;10.008;2023-03-20T04:56:43;96483.72;;;9.91;67.25
8253;BME280;61313;48.396;10.008;2023-03-20T04:59:08;96484.75;;;9.87;67.05
8253;BME280;61313;48.396;10.008;2023-03-20T05:01:33;96487.59;;;9.83;67.69
8253;BME280;61313;48.396;10.008;2023-03-20T05:03:59;96486.72;;;9.82;68.04
8253;BME280;61313;48.396;10.008;2023-03-20T05:06:29;96489.34;;;9.82;67.58
8253;BME280;61313;48.396;10.008;2023-03-20T05:08:56;96497.09;;;9.85;67.38
8253;BME280;61313;48.396;10.008;2023-03-20T05:11:23;96501.59;;;9.82;67.32
8253;BME280;61313;48.396;10.008;2023-03-20T05:13:49;96498.25;;;9.78;67.50
8253;BME280;61313;48.396;10.008;2023-03-20T05:16:15;96503.25;;;9.84;67.26
8253;BME280;61313;48.396;10.008;2023-03-20T05:18:40;96496.97;;;9.88;67.80
8253;BME280;61313;48.396;10.008;2023-03-20T05:21:06;96495.41;;;10.06;66.89
8253;BME280;61313;48.396;10.008;2023-03-20T05:23:32;96491.66;;;9.68;68.50
8253;BME280;61313;48.396;10.008;2023-03-20T05:25:58;96497.69;;;9.70;68.64
8253;BME280;61313;48.396;10.008;2023-03-20T05:28:23;96483.31;;;9.80;68.24
8253;BME280;61313;48.396;10.008;2023-03-20T05:30:48;96481.97;;;9.92;67.87
8253;BME280;61313;48.396;10.008;2023-03-20T05:33:14;96481.38;;;9.85;67.52
8253;BME280;61313;48.396;10.008;2023-03-20T05:35:40;96488.19;;;9.89;67.43
8253;BME280;61313;48.396;10.008;2023-03-20T05:38:05;96492.72;;;9.86;68.18
8253;BME280;61313;48.396;10.008;2023-03-20T05:40:31;96484.19;;;9.81;68.10
8253;BME280;61313;48.396;10.008;2023-03-20T05:42:56;96488.25;;;9.88;67.65
8253;BME280;61313;48.396;10.008;2023-03-20T05:45:22;96489.81;;;9.92;67.23
8253;BME280;61313;48.396;10.008;2023-03-20T05:47:47;96499.22;;;9.98;67.23
8253;BME280;61313;48.396;10.008;2023-03-20T05:50:13;96505.22;;;9.56;69.11
8253;BME280;61313;48.396;10.008;2023-03-20T05:52:39;96508.59;;;9.59;69.31
8253;BME280;61313;48.396;10.008;2023-03-20T05:55:05;96511.41;;;9.77;68.19
8253;BME280;61313;48.396;10.008;2023-03-20T05:57:30;96507.31;;;9.91;67.67
8253;BME280;61313;48.396;10.008;2023-03-20T05:59:56;96509.59;;;10.01;67.52
8253;BME280;61313;48.396;10.008;2023-03-20T06:02:21;96507.75;;;10.03;67.63
8253;BME280;61313;48.396;10.008;2023-03-20T06:04:47;96512.38;;;10.18;66.90
8253;BME280;61313;48.396;10.008;2023-03-20T06:07:12;96519.94;;;10.04;67.10
8253;BME280;61313;48.396;10.008;2023-03-20T06:09:37;96524.94;;;10.10;66.99
8253;BME280;61313;48.396;10.008;2023-03-20T06:12:03;96521.31;;;10.14;67.10
8253;BME280;61313;48.396;10.008;2023-03-20T06:14:28;96523.44;;;10.04;66.59
8253;BME280;61313;48.396;10.008;2023-03-20T06:16:54;96537.22;;;10.09;66.42
8253;BME280;61313;48.396;10.008;2023-03-20T06:19:21;96538.91;;;10.10;67.15
8253;BME280;61313;48.396;10.008;2023-03-20T06:21:47;96537.03;;;10.14;67.02
8253;BME280;61313;48.396;10.008;2023-03-20T06:24:13;96540.91;;;10.04;66.93
8253;BME280;61313;48.396;10.008;2023-03-20T06:26:39;96549.34;;;10.12;67.13
8253;BME280;61313;48.396;10.008;2023-03-20T06:29:04;96545.41;;;10.02;67.28
8253;BME280;61313;48.396;10.008;2023-03-20T06:31:30;96542.44;;;9.87;67.88
8253;BME280;61313;48.396;10.008;2023-03-20T06:33:56;96535.63;;;10.05;67.57
8253;BME280;61313;48.396;10.008;2023-03-20T06:36:22;96538.59;;;10.18;67.23
8253;BME280;61313;48.396;10.008;2023-03-20T06:38:47;96535.16;;;10.40;66.70
8253;BME280;61313;48.396;10.008;2023-03-20T06:41:13;96527.47;;;10.77;64.96
8253;BME280;61313;48.396;10.008;2023-03-20T06:43:38;96528.56;;;11.13;64.06
8253;BME280;61313;48.396;10.008;2023-03-20T06:46:05;96541.75;;;11.51;62.48
8253;BME280;61313;48.396;10.008;2023-03-20T06:48:31;96542.28;;;11.38;62.63
8253;BME280;61313;48.396;10.008;2023-03-20T06:50:57;96551.53;;;11.47;62.23
8253;BME280;61313;48.396;10.008;2023-03-20T06:53:22;96546.78;;;11.36;62.69
8253;BME280;61313;48.396;10.008;2023-03-20T06:55:48;96547.44;;;11.21;63.21
8253;BME280;61313;48.396;10.008;2023-03-20T06:58:15;96551.16;;;10.96;63.46
8253;BME280;61313;48.396;10.008;2023-03-20T07:00:41;96543.47;;;10.92;64.14
8253;BME280;61313;48.396;10.008;2023-03-20T07:03:06;96557.44;;;10.92;63.92
8253;BME280;61313;48.396;10.008;2023-03-20T07:05:32;96551.00;;;10.79;64.08
8253;BME280;61313;48.396;10.008;2023-03-20T07:07:58;96551.38;;;10.70;64.49
8253;BME280;61313;48.396;10.008;2023-03-20T07:10:24;96556.63;;;10.70;64.68
8253;BME280;61313;48.396;10.008;2023-03-20T07:12:49;96558.94;;;10.57;65.05
8253;BME280;61313;48.396;10.008;2023-03-20T07:15:18;96556.72;;;10.68;64.64
8253;BME280;61313;48.396;10.008;2023-03-20T07:17:44;96562.81;;;10.69;64.09
8253;BME280;61313;48.396;10.008;2023-03-20T07:20:10;96560.38;;;10.64;64.34
8253;BME280;61313;48.396;10.008;2023-03-20T07:22:37;96559.19;;;10.71;64.00
8253;BME280;61313;48.396;10.008;2023-03-20T07:25:04;96555.78;;;10.69;63.75
8253;BME280;61313;48.396;10.008;2023-03-20T07:27:30;96552.06;;;10.75;63.92
8253;BME280;61313;48.396;10.008;2023-03-20T07:29:55;96545.16;;;10.72;64.23
8253;BME280;61313;48.396;10.008;2023-03-20T07:32:21;96546.63;;;10.79;63.95
8253;BME280;61313;48.396;10.008;2023-03-20T07:34:46;96544.06;;;10.78;64.23
8253;BME280;61313;48.396;10.008;2023-03-20T07:37:13;96550.16;;;10.78;64.59
8253;BME280;61313;48.396;10.008;2023-03-20T07:39:39;96557.59;;;10.89;64.04
8253;BME280;61313;48.396;10.008;2023-03-20T07:42:05;96556.84;;;10.86;64.12
8253;BME280;61313;48.396;10.008;2023-03-20T07:44:30;96557.41;;;10.94;63.76
8253;BME280;61313;48.396;10.008;2023-03-20T07:46:56;96556.22;;;11.01;63.66
8253;BME280;61313;48.396;10.008;2023-03-20T07:49:22;96555.13;;;11.05;63.91
8253;BME280;61313;48.396;10.008;2023-03-20T07:51:48;96552.84;;;11.18;63.45
8253;BME280;61313;48.396;10.008;2023-03-20T07:54:14;96556.56;;;11.33;63.19
8253;BME280;61313;48.396;10.008;2023-03-20T07:56:40;96560.22;;;11.49;62.11
8253;BME280;61313;48.396;10.008;2023-03-20T07:59:06;96564.47;;;11.52;62.35
8253;BME280;61313;48.396;10.008;2023-03-20T08:01:32;96565.31;;;11.52;62.37
8253;BME280;61313;48.396;10.008;2023-03-20T08:03:58;96560.59;;;11.60;61.96
8253;BME280;61313;48.396;10.008;2023-03-20T08:06:23;96557.88;;;11.62;61.12
8253;BME280;61313;48.396;10.008;2023-03-20T08:08:49;96557.06;;;11.99;60.43
8253;BME280;61313;48.396;10.008;2023-03-20T08:11:17;96550.22;;;12.33;59.10
8253;BME280;61313;48.396;10.008;2023-03-20T08:13:42;96551.97;;;12.33;57.54
8253;BME280;61313;48.396;10.008;2023-03-20T08:16:08;96559.97;;;12.48;56.83
8253;BME280;61313;48.396;10.008;2023-03-20T08:18:33;96555.50;;;12.68;56.27
8253;BME280;61313;48.396;10.008;2023-03-20T08:20:59;96568.22;;;12.60;56.51
8253;BME280;61313;48.396;10.008;2023-03-20T08:23:25;96570.56;;;12.83;55.58
8253;BME280;61313;48.396;10.008;2023-03-20T08:25:51;96555.91;;;12.95;54.69
8253;BME280;61313;48.396;10.008;2023-03-20T08:28:18;96557.47;;;12.99;54.66
8253;BME280;61313;48.396;10.008;2023-03-20T08:30:44;96554.56;;;13.21;54.78
8253;BME280;61313;48.396;10.008;2023-03-20T08:33:10;96549.47;;;13.18;54.71
8253;BME280;61313;48.396;10.008;2023-03-20T08:35:36;96556.97;;;13.26;53.67
8253;BME280;61313;48.396;10.008;2023-03-20T08:38:02;96560.97;;;13.50;53.70
8253;BME280;61313;48.396;10.008;2023-03-20T08:40:27;96561.69;;;13.54;52.88
8253;BME280;61313;48.396;10.008;2023-03-20T08:42:53;96559.72;;;13.58;52.71
8253;BME280;61313;48.396;10.008;2023-03-20T08:45:18;96553.44;;;13.76;52.69
8253;BME280;61313;48.396;10.008;2023-03-20T08:47:46;96555.03;;;13.29;53.02
8253;BME280;61313;48.396;10.008;2023-03-20T08:50:13;96548.69;;;13.33;53.42
8253;BME280;61313;48.396;10.008;2023-03-20T08:52:39;96539.47;;;13.58;53.27
8253;BME280;61313;48.396;10.008;2023-03-20T08:55:12;96542.59;;;14.14;51.64
8253;BME280;61313;48.396;10.008;2023-03-20T08:57:39;96540.75;;;14.62;50.73
8253;BME280;61313;48.396;10.008;2023-03-20T09:00:06;96551.41;;;15.35;48.20
8253;BME280;61313;48.396;10.008;2023-03-20T09:02:31;96539.25;;;14.88;48.35
8253;BME280;61313;48.396;10.008;2023-03-20T09:04:57;96549.28;;;15.12;50.39
8253;BME280;61313;48.396;10.008;2023-03-20T09:07:23;96537.34;;;14.90;48.94
8253;BME280;61313;48.396;10.008;2023-03-20T09:09:48;96535.72;;;14.73;48.47
8253;BME280;61313;48.396;10.008;2023-03-20T09:12:14;96547.34;;;14.55;48.28
8253;BME280;61313;48.396;10.008;2023-03-20T09:14:40;96541.91;;;14.88;48.25
8253;BME280;61313;48.396;10.008;2023-03-20T09:17:06;96540.53;;;15.25;47.02
8253;BME280;61313;48.396;10.008;2023-03-20T09:19:32;96543.22;;;15.69;46.29
8253;BME280;61313;48.396;10.008;2023-03-20T09:21:58;96545.66;;;16.15;44.76
8253;BME280;61313;48.396;10.008;2023-03-20T09:24:24;96540.09;;;16.05;44.49
8253;BME280;61313;48.396;10.008;2023-03-20T09:26:49;96544.50;;;16.46;44.17
8253;BME280;61313;48.396;10.008;2023-03-20T09:29:16;96548.22;;;16.43;43.67
8253;BME280;61313;48.396;10.008;2023-03-20T09:31:42;96547.50;;;16.27;43.49
8253;BME280;61313;48.396;10.008;2023-03-20T09:34:07;96548.63;;;15.81;44.72
8253;BME280;61313;48.396;10.008;2023-03-20T09:36:33;96545.00;;;15.54;45.57
8253;BME280;61313;48.396;10.008;2023-03-20T09:38:58;96548.28;;;15.14;46.32
8253;BME280;61313;48.396;10.008;2023-03-20T09:41:25;96550.97;;;14.98;47.01
8253;BME280;61313;48.396;10.008;2023-03-20T09:44:36;96555.94;;;14.58;47.88
8253;BME280;61313;48.396;10.008;2023-03-20T09:52:34;96551.84;;;14.21;49.16
8253;BME280;61313;48.396;10.008;2023-03-20T09:55:05;96554.06;;;13.97;49.89
8253;BME280;61313;48.396;10.008;2023-03-20T10:00:28;96554.03;;;13.65;51.04
8253;BME280;61313;48.396;10.008;2023-03-20T10:05:25;96568.22;;;13.47;50.91
8253;BME280;61313;48.396;10.008;2023-03-20T10:07:56;96558.63;;;13.28;51.88
8253;BME280;61313;48.396;10.008;2023-03-20T10:10:38;96556.44;;;13.19;52.33
8253;BME280;61313;48.396;10.008;2023-03-20T10:18:28;96564.34;;;13.19;52.65
8253;BME280;61313;48.396;10.008;2023-03-20T10:21:16;96560.38;;;13.10;51.97
8253;BME280;61313;48.396;10.008;2023-03-20T10:24:02;96563.81;;;12.95;51.24
8253;BME280;61313;48.396;10.008;2023-03-20T10:26:30;96566.53;;;13.11;50.53
8253;BME280;61313;48.396;10.008;2023-03-20T10:29:00;96559.16;;;13.00;49.58
8253;BME280;61313;48.396;10.008;2023-03-20T10:31:47;96565.75;;;13.09;49.39
8253;BME280;61313;48.396;10.008;2023-03-20T10:40:25;96556.97;;;13.08;48.21
8253;BME280;61313;48.396;10.008;2023-03-20T10:42:53;96561.88;;;13.16;47.99
8253;BME280;61313;48.396;10.008;2023-03-20T10:45:44;96557.38;;;13.18;47.27
8253;BME280;61313;48.396;10.008;2023-03-20T10:48:16;96552.25;;;13.15;48.43
8253;BME280;61313;48.396;10.008;2023-03-20T10:50:54;96542.31;;;13.20;47.94
8253;BME280;61313;48.396;10.008;2023-03-20T10:56:09;96531.44;;;13.44;47.64
8253;BME280;61313;48.396;10.008;2023-03-20T10:58:42;96533.59;;;13.53;47.55
8253;BME280;61313;48.396;10.008;2023-03-20T11:01:09;96524.16;;;13.49;46.82
8253;BME280;61313;48.396;10.008;2023-03-20T11:03:35;96525.06;;;13.48;47.27
8253;BME280;61313;48.396;10.008;2023-03-20T11:06:24;96529.56;;;13.46;46.57
8253;BME280;61313;48.396;10.008;2023-03-20T11:08:52;96535.75;;;13.29;46.50
8253;BME280;61313;48.396;10.008;2023-03-20T11:11:26;96528.91;;;13.42;46.49
8253;BME280;61313;48.396;10.008;2023-03-20T11:13:52;96531.69;;;13.39;46.42
8253;BME280;61313;48.396;10.008;2023-03-20T11:18:49;96538.84;;;13.53;46.39
8253;BME280;61313;48.396;10.008;2023-03-20T11:21:19;96537.28;;;13.66;46.34
8253;BME280;61313;48.396;10.008;2023-03-20T11:23:45;96535.44;;;13.51;45.30
8253;BME280;61313;48.396;10.008;2023-03-20T11:26:15;96545.31;;;13.47;45.86
8253;BME280;61313;48.396;10.008;2023-03-20T11:28:41;96552.38;;;13.47;44.98
8253;BME280;61313;48.396;10.008;2023-03-20T11:33:42;96542.56;;;13.33;46.16
8253;BME280;61313;48.396;10.008;2023-03-20T11:36:20;96546.09;;;13.49;45.66
8253;BME280;61313;48.396;10.008;2023-03-20T11:38:46;96552.38;;;13.47;46.15
8253;BME280;61313;48.396;10.008;2023-03-20T11:41:27;96553.66;;;13.40;45.58
8253;BME280;61313;48.396;10.008;2023-03-20T11:43:53;96553.63;;;13.22;45.77
8253;BME280;61313;48.396;10.008;2023-03-20T11:46:21;96555.97;;;13.28;45.51
8253;BME280;61313;48.396;10.008;2023-03-20T11:49:01;96551.09;;;13.21;45.95
8253;BME280;61313;48.396;10.008;2023-03-20T11:51:27;96545.59;;;13.25;46.31
8253;BME280;61313;48.396;10.008;2023-03-20T11:53:59;96544.72;;;13.42;45.11
8253;BME280;61313;48.396;10.008;2023-03-20T11:56:27;96541.38;;;13.39;44.74
8253;BME280;61313;48.396;10.008;2023-03-20T12:01:52;96542.56;;;13.33;45.27
8253;BME280;61313;48.396;10.008;2023-03-20T12:04:30;96543.25;;;13.37;45.15
8253;BME280;61313;48.396;10.008;2023-03-20T12:07:18;96543.09;;;13.40;44.45
8253;BME280;61313;48.396;10.008;2023-03-20T12:09:51;96542.44;;;13.52;44.90
8253;BME280;61313;48.396;10.008;2023-03-20T12:20:44;96537.88;;;13.71;44.09
8253;BME280;61313;48.396;10.008;2023-03-20T12:23:26;96528.53;;;13.66;43.23
8253;BME280;61313;48.396;10.008;2023-03-20T12:31:51;96522.97;;;13.54;44.44
8253;BME280;61313;48.396;10.008;2023-03-20T12:34:24;96520.88;;;13.61;43.69
8253;BME280;61313;48.396;10.008;2023-03-20T12:36:53;96523.50;;;13.61;43.85
8253;BME280;61313;48.396;10.008;2023-03-20T12:39:23;96520.38;;;13.70;44.50
8253;BME280;61313;48.396;10.008;2023-03-20T12:45:00;96517.47;;;13.91;44.72
8253;BME280;61313;48.396;10.008;2023-03-20T12:47:57;96523.88;;;13.87;44.06
8253;BME280;61313;48.396;10.008;2023-03-20T12:50:40;96521.31;;;13.85;43.78
8253;BME280;61313;48.396;10.008;2023-03-20T12:56:22;96519.16;;;13.76;43.94
8253;BME280;61313;48.396;10.008;2023-03-20T12:59:06;96506.44;;;13.84;43.97
8253;BME280;61313;48.396;10.008;2023-03-20T13:01:52;96498.06;;;13.92;43.59
8253;BME280;61313;48.396;10.008;2023-03-20T13:04:43;96494.94;;;14.01;43.74
8253;BME280;61313;48.396;10.008;2023-03-20T13:07:17;96503.19;;;13.95;42.95
8253;BME280;61313;48.396;10.008;2023-03-20T13:10:09;96495.94;;;13.83;43.50
8253;BME280;61313;48.396;10.008;2023-03-20T13:36:31;96483.50;;;14.16;42.73
8253;BME280;61313;48.396;10.008;2023-03-20T13:39:05;96485.16;;;14.03;43.31
8253;BME280;61313;48.396;10.008;2023-03-20T13:41:33;96479.25;;;13.98;43.96
8253;BME280;61313;48.396;10.008;2023-03-20T13:44:02;96474.47;;;14.05;43.62
8253;BME280;61313;48.396;10.008;2023-03-20T13:46:42;96474.16;;;14.11;42.88
8253;BME280;61313;48.396;10.008;2023-03-20T13:49:19;96459.56;;;14.19;43.21
8253;BME280;61313;48.396;10.008;2023-03-20T13:51:56;96463.66;;;14.25;43.01
8253;BME280;61313;48.396;10.008;2023-03-20T13:54:49;96453.94;;;14.26;42.80
8253;BME280;61313;48.396;10.008;2023-03-20T14:05:40;96448.47;;;14.29;42.45
8253;BME280;61313;48.396;10.008;2023-03-20T14:08:38;96435.41;;;14.11;43.19
8253;BME280;61313;48.396;10.008;2023-03-20T14:13:43;96434.47;;;14.43;42.56
8253;BME280;61313;48.396;10.008;2023-03-20T14:16:10;96429.66;;;14.35;42.58
8253;BME280;61313;48.396;10.008;2023-03-20T14:18:39;96430.31;;;14.38;42.73
8253;BME280;61313;48.396;10.008;2023-03-20T14:21:12;96429.31;;;14.41;42.89
8253;BME280;61313;48.396;10.008;2023-03-20T14:23:41;96443.50;;;14.38;43.17
8253;BME280;61313;48.396;10.008;2023-03-20T14:26:40;96439.00;;;14.40;42.73
8253;BME280;61313;48.396;10.008;2023-03-20T14:31:36;96442.66;;;14.38;42.75
8253;BME280;61313;48.396;10.008;2023-03-20T14:36:45;96435.16;;;14.46;42.62
8253;BME280;61313;48.396;10.008;2023-03-20T14:52:48;96428.13;;;14.31;43.19
8253;BME280;61313;48.396;10.008;2023-03-20T14:54:54;96417.06;;;14.24;43.70
8253;BME280;61313;48.396;10.008;2023-03-20T14:57:32;96419.94;;;14.35;42.95
8253;BME280;61313;48.396;10.008;2023-03-20T14:59:58;96416.53;;;14.33;43.71
8253;BME280;61313;48.396;10.008;2023-03-20T15:02:29;96414.84;;;14.32;43.25
8253;BME280;61313;48.396;10.008;2023-03-20T15:04:58;96416.25;;;14.38;43.31
8253;BME280;61313;48.396;10.008;2023-03-20T15:07:26;96410.31;;;14.34;43.35
8253;BME280;61313;48.396;10.008;2023-03-20T15:09:56;96409.84;;;14.28;43.23
8253;BME280;61313;48.396;10.008;2023-03-20T15:12:26;96411.34;;;14.32;43.03
8253;BME280;61313;48.396;10.008;2023-03-20T15:15:04;96408.34;;;14.38;43.86
8253;BME280;61313;48.396;10.008;2023-03-20T15:22:49;96408.84;;;14.14;43.63
8253;BME280;61313;48.396;10.008;2023-03-20T15:25:16;96406.66;;;14.07;44.11
8253;BME280;61313;48.396;10.008;2023-03-20T15:27:42;96397.97;;;14.05;43.86
8253;BME280;61313;48.396;10.008;2023-03-20T15:30:12;96401.19;;;14.10;44.23
8253;BME280;61313;48.396;10.008;2023-03-20T15:32:39;96401.63;;;14.02;44.25
8253;BME280;61313;48.396;10.008;2023-03-20T15:35:13;96399.00;;;14.02;43.94
8253;BME280;61313;48.396;10.008;2023-03-20T15:37:42;96399.50;;;13.93;44.32
8253;BME280;61313;48.396;10.008;2023-03-20T15:40:11;96401.19;;;13.80;44.71
8253;BME280;61313;48.396;10.008;2023-03-20T15:42:37;96399.97;;;13.85;44.55
8253;BME280;61313;48.396;10.008;2023-03-20T15:45:19;96400.81;;;13.86;44.39
8253;BME280;61313;48.396;10.008;2023-03-20T15:47:46;96403.63;;;13.83;44.57
8253;BME280;61313;48.396;10.008;2023-03-20T15:50:12;96402.28;;;13.75;45.22